sensor_id;sensor_type;location;lat;lon;timestamp;temperature;humidity
58638;DHT22;54976;51.510;7.522;2023-08-06T00:00:16;15.90;99.90
58638;DHT22;54976;51.510;7.522;2023-08-06T00:03:16;15.90;99.90
58638;DHT22;54976;51.510;7.522;2023-08-06T00:06:17;15.80;99.90
58638;DHT22;54976;51.510;7.522;2023-08-06T00:09:17;15.80;99.90
58638;DHT22;54976;51.510;7.522;2023-08-06T00:12:17;15.80;99.90
58638;DHT22;54976;51.510;7.522;2023-08-06T00:15:18;15.80;99.90
58638;DHT22;54976;51.510;7.522;2023-08-06T00:18:19;15.80;99.90
58638;DHT22;54976;51.510;7.522;2023-08-06T00:21:19;15.80;99.90
58638;DHT22;54976;51.510;7.522;2023-08-06T00:24:20;15.90;99.90
58638;DHT22;54976;51.510;7.522;2023-08-06T00:27:20;15.90;99.90
58638;DHT22;54976;51.510;7.522;2023-08-06T00:30:21;15.80;99.90
58638;DHT22;54976;51.510;7.522;2023-08-06T00:33:22;15.80;99.90
58638;DHT22;54976;51.510;7.522;2023-08-06T00:36:23;15.80;99.90
58638;DHT22;54976;51.510;7.522;2023-08-06T00:39:23;15.80;99.90
58638;DHT22;54976;51.510;7.522;2023-08-06T00:42:24;15.90;99.90
58638;DHT22;54976;51.510;7.522;2023-08-06T00:45:24;15.90;99.90
58638;DHT22;54976;51.510;7.522;2023-08-06T00:48:25;15.90;99.90
58638;DHT22;54976;51.510;7.522;2023-08-06T00:51:25;16.00;99.90
58638;DHT22;54976;51.510;7.522;2023-08-06T00:54:26;15.80;99.90
58638;DHT22;54976;51.510;7.522;2023-08-06T00:57:27;15.80;99.90
58638;DHT22;54976;51.510;7.522;2023-08-06T01:00:28;15.80;99.90
58638;DHT22;54976;51.510;7.522;2023-08-06T01:03:28;15.80;99.90
58638;DHT22;54976;51.510;7.522;2023-08-06T01:06:33;15.80;99.90
58638;DHT22;54976;51.510;7.522;2023-08-06T01:12:58;15.90;99.90
58638;DHT22;54976;51.510;7.522;2023-08-06T01:16:00;15.80;99.90
58638;DHT22;54976;51.510;7.522;2023-08-06T01:19:02;15.80;99.90
58638;DHT22;54976;51.510;7.522;2023-08-06T01:22:02;15.80;99.90
58638;DHT22;54976;51.510;7.522;2023-08-06T01:25:03;15.80;99.90
58638;DHT22;54976;51.510;7.522;2023-08-06T01:28:09;15.80;99.90
58638;DHT22;54976;51.510;7.522;2023-08-06T01:31:16;15.70;99.90
58638;DHT22;54976;51.510;7.522;2023-08-06T01:34:23;15.70;99.90
58638;DHT22;54976;51.510;7.522;2023-08-06T01:37:24;15.70;99.90
58638;DHT22;54976;51.510;7.522;2023-08-06T01:40:24;15.70;99.90
58638;DHT22;54976;51.510;7.522;2023-08-06T01:43:27;15.70;99.90
58638;DHT22;54976;51.510;7.522;2023-08-06T01:46:27;15.70;99.90
58638;DHT22;54976;51.510;7.522;2023-08-06T01:49:28;15.70;99.90
58638;DHT22;54976;51.510;7.522;2023-08-06T01:52:29;15.80;99.90
58638;DHT22;54976;51.510;7.522;2023-08-06T01:55:29;15.80;99.90
58638;DHT22;54976;51.510;7.522;2023-08-06T01:58:30;15.80;99.90
58638;DHT22;54976;51.510;7.522;2023-08-06T02:01:31;15.80;99.90
58638;DHT22;54976;51.510;7.522;2023-08-06T02:04:31;15.80;99.90
58638;DHT22;54976;51.510;7.522;2023-08-06T02:07:32;15.80;99.90
58638;DHT22;54976;51.510;7.522;2023-08-06T02:10:32;15.80;99.90
58638;DHT22;54976;51.510;7.522;2023-08-06T02:13:33;15.80;99.90
58638;DHT22;54976;51.510;7.522;2023-08-06T02:16:33;15.70;99.90
58638;DHT22;54976;51.510;7.522;2023-08-06T02:19:34;15.80;99.90
58638;DHT22;54976;51.510;7.522;2023-08-06T02:22:34;15.80;99.90
58638;DHT22;54976;51.510;7.522;2023-08-06T02:25:35;15.80;99.90
58638;DHT22;54976;51.510;7.522;2023-08-06T02:28:35;15.80;99.90
58638;DHT22;54976;51.510;7.522;2023-08-06T02:31:36;15.80;99.90
58638;DHT22;54976;51.510;7.522;2023-08-06T02:34:36;15.80;99.90
58638;DHT22;54976;51.510;7.522;2023-08-06T02:37:37;15.80;99.90
58638;DHT22;54976;51.510;7.522;2023-08-06T02:40:42;15.80;99.90
58638;DHT22;54976;51.510;7.522;2023-08-06T02:43:43;15.70;99.90
58638;DHT22;54976;51.510;7.522;2023-08-06T02:46:44;15.70;99.90
58638;DHT22;54976;51.510;7.522;2023-08-06T02:49:45;15.70;99.90
58638;DHT22;54976;51.510;7.522;2023-08-06T02:52:45;15.70;99.90
58638;DHT22;54976;51.510;7.522;2023-08-06T02:55:46;15.70;99.90
58638;DHT22;54976;51.510;7.522;2023-08-06T02:58:51;15.70;99.90
58638;DHT22;54976;51.510;7.522;2023-08-06T03:01:51;15.80;99.90
58638;DHT22;54976;51.510;7.522;2023-08-06T03:04:52;15.60;99.90
58638;DHT22;54976;51.510;7.522;2023-08-06T03:07:52;15.60;99.90
58638;DHT22;54976;51.510;7.522;2023-08-06T03:10:53;15.50;99.90
58638;DHT22;54976;51.510;7.522;2023-08-06T03:13:53;15.50;99.90
58638;DHT22;54976;51.510;7.522;2023-08-06T03:16:54;15.50;99.90
58638;DHT22;54976;51.510;7.522;2023-08-06T03:19:54;15.50;99.90
58638;DHT22;54976;51.510;7.522;2023-08-06T03:22:54;15.50;99.90
58638;DHT22;54976;51.510;7.522;2023-08-06T03:25:55;15.60;99.90
58638;DHT22;54976;51.510;7.522;2023-08-06T03:28:55;15.40;99.90
58638;DHT22;54976;51.510;7.522;2023-08-06T03:31:56;15.40;99.90
58638;DHT22;54976;51.510;7.522;2023-08-06T03:34:56;15.30;99.90
58638;DHT22;54976;51.510;7.522;2023-08-06T03:37:57;15.20;99.90
58638;DHT22;54976;51.510;7.522;2023-08-06T03:40:57;15.30;99.90
58638;DHT22;54976;51.510;7.522;2023-08-06T03:43:58;15.20;99.90
58638;DHT22;54976;51.510;7.522;2023-08-06T03:46:58;15.20;99.90
58638;DHT22;54976;51.510;7.522;2023-08-06T03:49:59;15.10;99.90
58638;DHT22;54976;51.510;7.522;2023-08-06T03:52:59;15.20;99.90
58638;DHT22;54976;51.510;7.522;2023-08-06T03:56:00;15.10;99.90
58638;DHT22;54976;51.510;7.522;2023-08-06T03:59:01;15.20;99.90
58638;DHT22;54976;51.510;7.522;2023-08-06T04:02:01;15.20;99.90
58638;DHT22;54976;51.510;7.522;2023-08-06T04:05:02;15.10;99.90
58638;DHT22;54976;51.510;7.522;2023-08-06T04:08:03;15.10;99.90
58638;DHT22;54976;51.510;7.522;2023-08-06T04:11:03;15.10;99.90
58638;DHT22;54976;51.510;7.522;2023-08-06T04:14:04;15.00;99.90
58638;DHT22;54976;51.510;7.522;2023-08-06T04:17:04;15.10;99.90
58638;DHT22;54976;51.510;7.522;2023-08-06T04:20:05;15.10;99.90
58638;DHT22;54976;51.510;7.522;2023-08-06T04:23:06;15.10;99.90
58638;DHT22;54976;51.510;7.522;2023-08-06T04:26:06;15.10;99.90
58638;DHT22;54976;51.510;7.522;2023-08-06T04:29:07;15.10;99.90
58638;DHT22;54976;51.510;7.522;2023-08-06T04:32:08;15.10;99.90
58638;DHT22;54976;51.510;7.522;2023-08-06T04:35:09;15.10;99.90
58638;DHT22;54976;51.510;7.522;2023-08-06T04:38:09;15.10;99.90
58638;DHT22;54976;51.510;7.522;2023-08-06T04:41:10;15.10;99.90
58638;DHT22;54976;51.510;7.522;2023-08-06T04:44:10;15.20;99.90
58638;DHT22;54976;51.510;7.522;2023-08-06T04:47:11;15.20;99.90
58638;DHT22;54976;51.510;7.522;2023-08-06T04:50:11;15.20;99.90
58638;DHT22;54976;51.510;7.522;2023-08-06T04:53:12;15.20;99.90
58638;DHT22;54976;51.510;7.522;2023-08-06T04:56:13;15.30;99.90
58638;DHT22;54976;51.510;7.522;2023-08-06T04:59:13;15.20;99.90
58638;DHT22;54976;51.510;7.522;2023-08-06T05:02:13;15.20;99.90
58638;DHT22;54976;51.510;7.522;2023-08-06T05:05:14;15.30;99.90
58638;DHT22;54976;51.510;7.522;2023-08-06T05:08:15;15.30;99.90
58638;DHT22;54976;51.510;7.522;2023-08-06T05:11:18;15.50;99.90
58638;DHT22;54976;51.510;7.522;2023-08-06T05:14:19;15.40;99.90
58638;DHT22;54976;51.510;7.522;2023-08-06T05:17:19;15.30;99.90
58638;DHT22;54976;51.510;7.522;2023-08-06T05:20:20;15.30;99.90
58638;DHT22;54976;51.510;7.522;2023-08-06T05:23:21;15.30;99.90
58638;DHT22;54976;51.510;7.522;2023-08-06T05:26:21;15.40;99.90
58638;DHT22;54976;51.510;7.522;2023-08-06T05:29:22;15.50;99.90
58638;DHT22;54976;51.510;7.522;2023-08-06T05:32:22;15.50;99.90
58638;DHT22;54976;51.510;7.522;2023-08-06T05:35:22;15.70;99.90
58638;DHT22;54976;51.510;7.522;2023-08-06T05:38:23;15.80;99.90
58638;DHT22;54976;51.510;7.522;2023-08-06T05:41:24;15.80;99.90
58638;DHT22;54976;51.510;7.522;2023-08-06T05:44:24;15.80;99.90
58638;DHT22;54976;51.510;7.522;2023-08-06T05:47:25;16.10;99.90
58638;DHT22;54976;51.510;7.522;2023-08-06T05:50:25;16.30;99.90
58638;DHT22;54976;51.510;7.522;2023-08-06T05:53:26;16.40;99.90
58638;DHT22;54976;51.510;7.522;2023-08-06T05:56:26;16.60;99.90
58638;DHT22;54976;51.510;7.522;2023-08-06T05:59:27;16.70;99.90
58638;DHT22;54976;51.510;7.522;2023-08-06T06:02:27;16.70;99.90
58638;DHT22;54976;51.510;7.522;2023-08-06T06:05:28;16.70;99.90
58638;DHT22;54976;51.510;7.522;2023-08-06T06:08:28;17.00;99.90
58638;DHT22;54976;51.510;7.522;2023-08-06T06:11:29;17.30;99.90
58638;DHT22;54976;51.510;7.522;2023-08-06T06:14:29;17.20;99.90
58638;DHT22;54976;51.510;7.522;2023-08-06T06:17:30;17.30;99.90
58638;DHT22;54976;51.510;7.522;2023-08-06T06:20:31;17.40;99.90
58638;DHT22;54976;51.510;7.522;2023-08-06T06:23:32;17.50;99.90
58638;DHT22;54976;51.510;7.522;2023-08-06T06:26:32;17.70;99.90
58638;DHT22;54976;51.510;7.522;2023-08-06T06:29:33;17.70;99.90
58638;DHT22;54976;51.510;7.522;2023-08-06T06:32:33;17.70;99.90
58638;DHT22;54976;51.510;7.522;2023-08-06T06:35:34;17.70;99.90
58638;DHT22;54976;51.510;7.522;2023-08-06T06:38:35;17.70;99.90
58638;DHT22;54976;51.510;7.522;2023-08-06T06:41:35;17.70;99.90
58638;DHT22;54976;51.510;7.522;2023-08-06T06:44:36;17.90;99.90
58638;DHT22;54976;51.510;7.522;2023-08-06T06:47:36;17.90;99.90
58638;DHT22;54976;51.510;7.522;2023-08-06T06:50:36;17.90;99.90
58638;DHT22;54976;51.510;7.522;2023-08-06T06:53:39;17.90;99.90
58638;DHT22;54976;51.510;7.522;2023-08-06T06:56:39;18.00;99.90
58638;DHT22;54976;51.510;7.522;2023-08-06T06:59:40;17.90;99.90
58638;DHT22;54976;51.510;7.522;2023-08-06T07:02:41;18.00;99.90
58638;DHT22;54976;51.510;7.522;2023-08-06T07:05:41;18.20;99.90
58638;DHT22;54976;51.510;7.522;2023-08-06T07:08:42;18.30;99.90
58638;DHT22;54976;51.510;7.522;2023-08-06T07:11:42;18.30;99.90
58638;DHT22;54976;51.510;7.522;2023-08-06T07:14:46;18.50;99.90
58638;DHT22;54976;51.510;7.522;2023-08-06T07:17:46;18.70;99.90
58638;DHT22;54976;51.510;7.522;2023-08-06T07:20:50;18.80;99.90
58638;DHT22;54976;51.510;7.522;2023-08-06T07:23:51;19.00;99.90
58638;DHT22;54976;51.510;7.522;2023-08-06T07:26:51;19.10;99.90
58638;DHT22;54976;51.510;7.522;2023-08-06T07:29:53;19.20;99.90
58638;DHT22;54976;51.510;7.522;2023-08-06T07:32:53;19.10;99.90
58638;DHT22;54976;51.510;7.522;2023-08-06T07:35:54;18.90;97.80
58638;DHT22;54976;51.510;7.522;2023-08-06T07:38:54;19.00;99.00
58638;DHT22;54976;51.510;7.522;2023-08-06T07:41:56;19.10;98.90
58638;DHT22;54976;51.510;7.522;2023-08-06T07:44:58;19.20;98.50
58638;DHT22;54976;51.510;7.522;2023-08-06T07:47:58;19.20;97.70
58638;DHT22;54976;51.510;7.522;2023-08-06T07:50:59;19.00;97.90
58638;DHT22;54976;51.510;7.522;2023-08-06T07:53:59;19.10;99.70
58638;DHT22;54976;51.510;7.522;2023-08-06T07:57:00;19.20;99.50
58638;DHT22;54976;51.510;7.522;2023-08-06T08:00:00;19.20;98.60
58638;DHT22;54976;51.510;7.522;2023-08-06T08:03:01;19.20;99.90
58638;DHT22;54976;51.510;7.522;2023-08-06T08:06:02;19.20;99.90
58638;DHT22;54976;51.510;7.522;2023-08-06T08:09:02;19.10;98.50
58638;DHT22;54976;51.510;7.522;2023-08-06T08:12:03;18.80;98.40
58638;DHT22;54976;51.510;7.522;2023-08-06T08:15:04;18.80;99.80
58638;DHT22;54976;51.510;7.522;2023-08-06T08:18:04;18.80;98.70
58638;DHT22;54976;51.510;7.522;2023-08-06T08:21:05;18.80;98.90
58638;DHT22;54976;51.510;7.522;2023-08-06T08:24:05;18.60;99.70
58638;DHT22;54976;51.510;7.522;2023-08-06T08:27:06;18.50;99.90
58638;DHT22;54976;51.510;7.522;2023-08-06T08:30:06;18.50;99.90
58638;DHT22;54976;51.510;7.522;2023-08-06T08:33:07;18.60;99.90
58638;DHT22;54976;51.510;7.522;2023-08-06T08:36:08;18.60;99.90
58638;DHT22;54976;51.510;7.522;2023-08-06T08:39:10;18.70;99.90
58638;DHT22;54976;51.510;7.522;2023-08-06T08:42:10;18.70;99.90
58638;DHT22;54976;51.510;7.522;2023-08-06T08:45:11;18.80;99.90
58638;DHT22;54976;51.510;7.522;2023-08-06T08:48:12;19.00;99.90
58638;DHT22;54976;51.510;7.522;2023-08-06T08:51:16;19.00;99.90
58638;DHT22;54976;51.510;7.522;2023-08-06T08:54:17;18.90;99.90
58638;DHT22;54976;51.510;7.522;2023-08-06T08:57:18;18.80;99.90
58638;DHT22;54976;51.510;7.522;2023-08-06T09:00:19;18.80;99.90
58638;DHT22;54976;51.510;7.522;2023-08-06T09:03:19;18.90;99.90
58638;DHT22;54976;51.510;7.522;2023-08-06T09:06:20;19.10;99.90
58638;DHT22;54976;51.510;7.522;2023-08-06T09:09:25;19.40;99.90
58638;DHT22;54976;51.510;7.522;2023-08-06T09:12:26;19.60;98.90
58638;DHT22;54976;51.510;7.522;2023-08-06T09:15:27;19.80;98.10
58638;DHT22;54976;51.510;7.522;2023-08-06T09:18:31;19.80;98.40
58638;DHT22;54976;51.510;7.522;2023-08-06T09:21:32;20.20;97.90
58638;DHT22;54976;51.510;7.522;2023-08-06T09:24:32;19.90;97.10
58638;DHT22;54976;51.510;7.522;2023-08-06T09:27:33;19.80;96.30
58638;DHT22;54976;51.510;7.522;2023-08-06T09:30:34;19.80;96.30
58638;DHT22;54976;51.510;7.522;2023-08-06T09:33:36;19.50;96.60
58638;DHT22;54976;51.510;7.522;2023-08-06T09:36:39;19.70;97.20
58638;DHT22;54976;51.510;7.522;2023-08-06T09:39:39;19.50;96.30
58638;DHT22;54976;51.510;7.522;2023-08-06T09:42:43;19.50;97.20
58638;DHT22;54976;51.510;7.522;2023-08-06T09:45:45;19.70;98.40
58638;DHT22;54976;51.510;7.522;2023-08-06T09:48:46;19.70;96.70
58638;DHT22;54976;51.510;7.522;2023-08-06T09:51:47;19.60;97.50
58638;DHT22;54976;51.510;7.522;2023-08-06T09:54:51;19.50;98.20
58638;DHT22;54976;51.510;7.522;2023-08-06T09:57:52;19.40;98.70
58638;DHT22;54976;51.510;7.522;2023-08-06T10:00:53;19.40;98.80
58638;DHT22;54976;51.510;7.522;2023-08-06T10:03:53;19.40;99.40
58638;DHT22;54976;51.510;7.522;2023-08-06T10:06:54;19.30;98.80
58638;DHT22;54976;51.510;7.522;2023-08-06T10:09:55;19.30;99.50
58638;DHT22;54976;51.510;7.522;2023-08-06T10:12:56;19.30;99.30
58638;DHT22;54976;51.510;7.522;2023-08-06T10:15:58;19.40;99.70
58638;DHT22;54976;51.510;7.522;2023-08-06T10:18:58;19.50;99.90
58638;DHT22;54976;51.510;7.522;2023-08-06T10:22:15;19.50;99.20
58638;DHT22;54976;51.510;7.522;2023-08-06T10:25:17;19.60;99.50
58638;DHT22;54976;51.510;7.522;2023-08-06T10:28:17;19.70;99.70
58638;DHT22;54976;51.510;7.522;2023-08-06T10:31:19;19.80;99.90
58638;DHT22;54976;51.510;7.522;2023-08-06T10:34:19;20.00;98.90
58638;DHT22;54976;51.510;7.522;2023-08-06T10:37:20;20.00;98.60
58638;DHT22;54976;51.510;7.522;2023-08-06T10:40:20;19.90;97.40
58638;DHT22;54976;51.510;7.522;2023-08-06T10:43:27;20.00;98.00
58638;DHT22;54976;51.510;7.522;2023-08-06T10:46:28;20.10;98.50
58638;DHT22;54976;51.510;7.522;2023-08-06T10:49:29;20.40;97.90
58638;DHT22;54976;51.510;7.522;2023-08-06T10:52:29;20.70;97.90
58638;DHT22;54976;51.510;7.522;2023-08-06T10:55:30;20.60;96.00
58638;DHT22;54976;51.510;7.522;2023-08-06T10:58:31;20.70;96.60
58638;DHT22;54976;51.510;7.522;2023-08-06T11:01:32;20.70;96.70
58638;DHT22;54976;51.510;7.522;2023-08-06T11:04:35;20.70;95.90
58638;DHT22;54976;51.510;7.522;2023-08-06T11:07:36;20.60;97.40
58638;DHT22;54976;51.510;7.522;2023-08-06T11:10:37;20.50;96.60
58638;DHT22;54976;51.510;7.522;2023-08-06T11:13:37;19.80;95.30
58638;DHT22;54976;51.510;7.522;2023-08-06T11:16:38;19.30;97.40
58638;DHT22;54976;51.510;7.522;2023-08-06T11:19:40;19.10;98.10
58638;DHT22;54976;51.510;7.522;2023-08-06T11:22:41;19.20;98.70
58638;DHT22;54976;51.510;7.522;2023-08-06T11:25:44;19.10;98.30
58638;DHT22;54976;51.510;7.522;2023-08-06T11:28:45;19.00;98.20
58638;DHT22;54976;51.510;7.522;2023-08-06T11:31:46;19.20;97.70
58638;DHT22;54976;51.510;7.522;2023-08-06T11:34:46;19.20;97.80
58638;DHT22;54976;51.510;7.522;2023-08-06T11:37:47;19.00;97.90
58638;DHT22;54976;51.510;7.522;2023-08-06T11:40:47;19.20;98.20
58638;DHT22;54976;51.510;7.522;2023-08-06T11:43:48;19.70;99.00
58638;DHT22;54976;51.510;7.522;2023-08-06T11:46:52;19.90;97.00
58638;DHT22;54976;51.510;7.522;2023-08-06T11:49:52;19.90;94.70
58638;DHT22;54976;51.510;7.522;2023-08-06T11:53:00;20.00;94.00
58638;DHT22;54976;51.510;7.522;2023-08-06T11:56:01;19.90;95.50
58638;DHT22;54976;51.510;7.522;2023-08-06T11:59:01;20.00;95.90
58638;DHT22;54976;51.510;7.522;2023-08-06T12:02:02;20.10;94.70
58638;DHT22;54976;51.510;7.522;2023-08-06T12:05:04;20.30;93.30
58638;DHT22;54976;51.510;7.522;2023-08-06T12:08:05;20.70;94.70
58638;DHT22;54976;51.510;7.522;2023-08-06T12:11:05;20.80;91.90
58638;DHT22;54976;51.510;7.522;2023-08-06T12:14:06;20.90;93.60
58638;DHT22;54976;51.510;7.522;2023-08-06T12:17:07;21.00;92.10
58638;DHT22;54976;51.510;7.522;2023-08-06T12:20:07;21.00;93.50
58638;DHT22;54976;51.510;7.522;2023-08-06T12:23:08;21.00;92.70
58638;DHT22;54976;51.510;7.522;2023-08-06T12:26:10;20.80;93.40
58638;DHT22;54976;51.510;7.522;2023-08-06T12:29:10;20.60;92.80
58638;DHT22;54976;51.510;7.522;2023-08-06T12:32:11;20.40;92.70
58638;DHT22;54976;51.510;7.522;2023-08-06T12:35:12;20.20;92.90
58638;DHT22;54976;51.510;7.522;2023-08-06T12:38:14;20.00;94.10
58638;DHT22;54976;51.510;7.522;2023-08-06T12:41:14;19.80;94.80
58638;DHT22;54976;51.510;7.522;2023-08-06T12:44:15;19.70;95.30
58638;DHT22;54976;51.510;7.522;2023-08-06T12:47:16;19.40;96.20
58638;DHT22;54976;51.510;7.522;2023-08-06T12:50:16;19.20;97.20
58638;DHT22;54976;51.510;7.522;2023-08-06T12:53:17;19.00;98.00
58638;DHT22;54976;51.510;7.522;2023-08-06T12:56:18;18.60;99.20
58638;DHT22;54976;51.510;7.522;2023-08-06T12:59:18;18.20;99.90
58638;DHT22;54976;51.510;7.522;2023-08-06T13:02:19;17.90;99.90
58638;DHT22;54976;51.510;7.522;2023-08-06T13:05:19;17.60;99.90
58638;DHT22;54976;51.510;7.522;2023-08-06T13:08:20;17.40;99.90
58638;DHT22;54976;51.510;7.522;2023-08-06T13:11:20;17.40;99.90
58638;DHT22;54976;51.510;7.522;2023-08-06T13:14:21;17.30;99.90
58638;DHT22;54976;51.510;7.522;2023-08-06T13:17:21;17.20;99.90
58638;DHT22;54976;51.510;7.522;2023-08-06T13:20:22;17.30;99.90
58638;DHT22;54976;51.510;7.522;2023-08-06T13:23:23;17.30;99.90
58638;DHT22;54976;51.510;7.522;2023-08-06T13:26:23;17.30;99.90
58638;DHT22;54976;51.510;7.522;2023-08-06T13:29:24;17.30;99.90
58638;DHT22;54976;51.510;7.522;2023-08-06T13:32:25;17.20;99.90
58638;DHT22;54976;51.510;7.522;2023-08-06T13:35:25;17.20;99.90
58638;DHT22;54976;51.510;7.522;2023-08-06T13:38:26;17.30;99.90
58638;DHT22;54976;51.510;7.522;2023-08-06T13:41:26;17.30;99.90
58638;DHT22;54976;51.510;7.522;2023-08-06T13:44:27;17.50;99.90
58638;DHT22;54976;51.510;7.522;2023-08-06T13:47:29;17.60;99.90
58638;DHT22;54976;51.510;7.522;2023-08-06T13:50:29;17.60;99.90
58638;DHT22;54976;51.510;7.522;2023-08-06T13:53:30;17.60;99.90
58638;DHT22;54976;51.510;7.522;2023-08-06T13:56:30;17.60;99.90
58638;DHT22;54976;51.510;7.522;2023-08-06T13:59:31;17.50;99.90
58638;DHT22;54976;51.510;7.522;2023-08-06T14:02:31;17.30;99.90
58638;DHT22;54976;51.510;7.522;2023-08-06T14:05:32;17.30;99.90
58638;DHT22;54976;51.510;7.522;2023-08-06T14:08:32;17.10;99.90
58638;DHT22;54976;51.510;7.522;2023-08-06T14:11:33;17.10;99.90
58638;DHT22;54976;51.510;7.522;2023-08-06T14:14:33;17.00;99.90
58638;DHT22;54976;51.510;7.522;2023-08-06T14:17:34;16.90;99.90
58638;DHT22;54976;51.510;7.522;2023-08-06T14:20:34;16.70;99.90
58638;DHT22;54976;51.510;7.522;2023-08-06T14:23:35;16.70;99.90
58638;DHT22;54976;51.510;7.522;2023-08-06T14:26:36;16.70;99.90
58638;DHT22;54976;51.510;7.522;2023-08-06T14:29:37;16.60;99.90
58638;DHT22;54976;51.510;7.522;2023-08-06T14:32:38;16.60;99.90
58638;DHT22;54976;51.510;7.522;2023-08-06T14:35:38;16.50;99.90
58638;DHT22;54976;51.510;7.522;2023-08-06T14:38:38;16.50;99.90
58638;DHT22;54976;51.510;7.522;2023-08-06T14:41:39;16.50;99.90
58638;DHT22;54976;51.510;7.522;2023-08-06T14:44:40;16.60;99.90
58638;DHT22;54976;51.510;7.522;2023-08-06T14:47:41;16.80;99.90
58638;DHT22;54976;51.510;7.522;2023-08-06T14:50:42;16.90;99.90
58638;DHT22;54976;51.510;7.522;2023-08-06T14:53:42;17.00;99.90
58638;DHT22;54976;51.510;7.522;2023-08-06T14:56:42;17.10;99.90
58638;DHT22;54976;51.510;7.522;2023-08-06T14:59:43;17.10;99.90
58638;DHT22;54976;51.510;7.522;2023-08-06T15:02:43;17.00;99.90
58638;DHT22;54976;51.510;7.522;2023-08-06T15:05:46;16.90;99.90
58638;DHT22;54976;51.510;7.522;2023-08-06T15:08:47;16.70;99.90
58638;DHT22;54976;51.510;7.522;2023-08-06T15:11:48;16.70;99.90
58638;DHT22;54976;51.510;7.522;2023-08-06T15:14:49;16.60;99.90
58638;DHT22;54976;51.510;7.522;2023-08-06T15:17:52;16.50;99.90
58638;DHT22;54976;51.510;7.522;2023-08-06T15:20:52;16.50;99.90
58638;DHT22;54976;51.510;7.522;2023-08-06T15:23:53;16.60;99.90
58638;DHT22;54976;51.510;7.522;2023-08-06T15:26:54;16.50;99.90
58638;DHT22;54976;51.510;7.522;2023-08-06T15:29:54;16.50;99.90
58638;DHT22;54976;51.510;7.522;2023-08-06T15:32:55;16.50;99.90
58638;DHT22;54976;51.510;7.522;2023-08-06T15:35:56;16.50;99.90
58638;DHT22;54976;51.510;7.522;2023-08-06T15:38:57;16.60;99.90
58638;DHT22;54976;51.510;7.522;2023-08-06T15:41:58;16.60;99.90
58638;DHT22;54976;51.510;7.522;2023-08-06T15:44:59;16.50;99.90
58638;DHT22;54976;51.510;7.522;2023-08-06T15:47:59;16.50;99.90
58638;DHT22;54976;51.510;7.522;2023-08-06T15:51:00;16.50;99.90
58638;DHT22;54976;51.510;7.522;2023-08-06T15:54:00;16.50;99.90
58638;DHT22;54976;51.510;7.522;2023-08-06T15:57:01;16.40;99.90
58638;DHT22;54976;51.510;7.522;2023-08-06T16:00:02;16.40;99.90
58638;DHT22;54976;51.510;7.522;2023-08-06T16:03:03;16.50;99.90
58638;DHT22;54976;51.510;7.522;2023-08-06T16:06:04;16.60;99.90
58638;DHT22;54976;51.510;7.522;2023-08-06T16:09:04;16.60;99.90
58638;DHT22;54976;51.510;7.522;2023-08-06T16:12:05;16.50;99.90
58638;DHT22;54976;51.510;7.522;2023-08-06T16:15:05;16.50;99.90
58638;DHT22;54976;51.510;7.522;2023-08-06T16:18:06;16.50;99.90
58638;DHT22;54976;51.510;7.522;2023-08-06T16:21:06;16.50;99.90
58638;DHT22;54976;51.510;7.522;2023-08-06T16:24:07;16.60;99.90
58638;DHT22;54976;51.510;7.522;2023-08-06T16:27:08;16.60;99.90
58638;DHT22;54976;51.510;7.522;2023-08-06T16:30:09;16.60;99.90
58638;DHT22;54976;51.510;7.522;2023-08-06T16:33:09;16.60;99.90
58638;DHT22;54976;51.510;7.522;2023-08-06T16:36:10;16.50;99.90
58638;DHT22;54976;51.510;7.522;2023-08-06T16:39:10;16.50;99.90
58638;DHT22;54976;51.510;7.522;2023-08-06T16:42:11;16.60;99.90
58638;DHT22;54976;51.510;7.522;2023-08-06T16:45:11;16.50;99.90
58638;DHT22;54976;51.510;7.522;2023-08-06T16:48:12;16.40;99.90
58638;DHT22;54976;51.510;7.522;2023-08-06T16:51:13;16.40;99.90
58638;DHT22;54976;51.510;7.522;2023-08-06T16:54:16;16.30;99.90
58638;DHT22;54976;51.510;7.522;2023-08-06T16:57:16;16.30;99.90
58638;DHT22;54976;51.510;7.522;2023-08-06T17:00:17;16.20;99.90
58638;DHT22;54976;51.510;7.522;2023-08-06T17:03:17;16.20;99.90
58638;DHT22;54976;51.510;7.522;2023-08-06T17:06:18;16.10;99.90
58638;DHT22;54976;51.510;7.522;2023-08-06T17:09:18;16.10;99.90
58638;DHT22;54976;51.510;7.522;2023-08-06T17:12:19;16.00;99.90
58638;DHT22;54976;51.510;7.522;2023-08-06T17:15:20;15.90;99.90
58638;DHT22;54976;51.510;7.522;2023-08-06T17:18:22;15.90;99.90
58638;DHT22;54976;51.510;7.522;2023-08-06T17:21:22;15.90;99.90
58638;DHT22;54976;51.510;7.522;2023-08-06T17:24:23;15.90;99.90
58638;DHT22;54976;51.510;7.522;2023-08-06T17:27:23;15.90;99.90
58638;DHT22;54976;51.510;7.522;2023-08-06T17:30:24;15.90;99.90
58638;DHT22;54976;51.510;7.522;2023-08-06T17:33:24;15.90;99.90
58638;DHT22;54976;51.510;7.522;2023-08-06T17:36:25;15.80;99.90
58638;DHT22;54976;51.510;7.522;2023-08-06T17:39:25;15.80;99.90
58638;DHT22;54976;51.510;7.522;2023-08-06T17:42:26;15.90;99.90
58638;DHT22;54976;51.510;7.522;2023-08-06T17:45:26;15.90;99.90
58638;DHT22;54976;51.510;7.522;2023-08-06T17:48:27;15.90;99.90
58638;DHT22;54976;51.510;7.522;2023-08-06T17:51:28;15.80;99.90
58638;DHT22;54976;51.510;7.522;2023-08-06T17:54:28;15.80;99.90
58638;DHT22;54976;51.510;7.522;2023-08-06T17:57:29;15.80;99.90
58638;DHT22;54976;51.510;7.522;2023-08-06T18:00:29;15.80;99.90
58638;DHT22;54976;51.510;7.522;2023-08-06T18:03:30;15.80;99.90
58638;DHT22;54976;51.510;7.522;2023-08-06T18:06:30;15.80;99.90
58638;DHT22;54976;51.510;7.522;2023-08-06T18:09:31;15.90;99.90
58638;DHT22;54976;51.510;7.522;2023-08-06T18:12:31;15.80;99.90
58638;DHT22;54976;51.510;7.522;2023-08-06T18:15:32;15.80;99.90
58638;DHT22;54976;51.510;7.522;2023-08-06T18:18:32;15.90;99.90
58638;DHT22;54976;51.510;7.522;2023-08-06T18:21:33;15.80;99.90
58638;DHT22;54976;51.510;7.522;2023-08-06T18:24:34;15.80;99.90
58638;DHT22;54976;51.510;7.522;2023-08-06T18:27:34;15.90;99.90
58638;DHT22;54976;51.510;7.522;2023-08-06T18:30:35;15.80;99.90
58638;DHT22;54976;51.510;7.522;2023-08-06T18:33:36;15.70;99.90
58638;DHT22;54976;51.510;7.522;2023-08-06T18:36:37;15.70;99.90
58638;DHT22;54976;51.510;7.522;2023-08-06T18:39:37;15.70;99.90
58638;DHT22;54976;51.510;7.522;2023-08-06T18:42:38;15.70;99.90
58638;DHT22;54976;51.510;7.522;2023-08-06T18:45:40;15.70;99.90
58638;DHT22;54976;51.510;7.522;2023-08-06T18:48:40;15.70;99.90
58638;DHT22;54976;51.510;7.522;2023-08-06T18:51:41;15.70;99.90
58638;DHT22;54976;51.510;7.522;2023-08-06T18:54:41;15.70;99.90
58638;DHT22;54976;51.510;7.522;2023-08-06T18:57:43;15.60;99.90
58638;DHT22;54976;51.510;7.522;2023-08-06T19:00:43;15.60;99.90
58638;DHT22;54976;51.510;7.522;2023-08-06T19:03:44;15.50;99.90